Time;durP1;ratioP1;P1;durP2;ratioP2;P2;SDS_P1;SDS_P2;PMS_P1;PMS_P2;Temp;Humidity;BMP_temperature;BMP_pressure;BME280_temperature;BME280_humidity;BME280_pressure;Samples;Min_cycle;Max_cycle;Signal;HPM_P1;HPM_P2
2022/07/08 00:00:59;;;;;;;9.25;1.52;;;;;;;;;;5009189;28;20018;-70
2022/07/08 00:03:24;;;;;;;9.53;1.60;;;;;;;;;;5006734;28;20109;-70
2022/07/08 00:05:49;;;;;;;10.93;1.70;;;;;;;;;;5008674;28;20799;-70
2022/07/08 00:08:14;;;;;;;12.53;1.60;;;;;;;;;;5009373;28;20280;-70
2022/07/08 00:10:39;;;;;;;7.50;1.30;;;;;;;;;;5010818;28;20705;-70
2022/07/08 00:13:05;;;;;;;11.57;1.60;;;;;;;;;;4994200;28;20021;-70
2022/07/08 00:15:31;;;;;;;8.05;1.85;;;;;;;;;;5012584;28;20025;-69
2022/07/08 00:17:56;;;;;;;12.70;1.35;;;;;;;;;;5007041;28;20021;-70
2022/07/08 00:20:21;;;;;;;7.68;1.30;;;;;;;;;;5009774;28;20064;-70
2022/07/08 00:22:47;;;;;;;8.98;1.35;;;;;;;;;;5011450;28;20022;-70
2022/07/08 00:25:12;;;;;;;9.55;1.58;;;;;;;;;;5011570;28;20095;-70
2022/07/08 00:27:37;;;;;;;9.37;1.30;;;;;;;;;;5010006;28;20088;-70
2022/07/08 00:30:03;;;;;;;12.45;2.70;;;;;;;;;;5012176;28;20280;-70
2022/07/08 00:32:28;;;;;;;4.32;1.23;;;;;;;;;;5008810;28;20017;-70
2022/07/08 00:34:53;;;;;;;17.52;2.22;;;;;;;;;;5011305;28;20026;-70
2022/07/08 00:37:18;;;;;;;9.80;1.30;;;;;;;;;;5010783;28;20025;-69
2022/07/08 00:39:43;;;;;;;10.33;1.57;;;;;;;;;;5010832;28;20037;-70
2022/07/08 00:42:08;;;;;;;6.10;2.20;;;;;;;;;;5011672;28;20307;-69
2022/07/08 00:44:34;;;;;;;9.63;1.70;;;;;;;;;;5011501;28;20761;-69
2022/07/08 00:46:59;;;;;;;8.95;1.42;;;;;;;;;;5011526;28;20026;-69
2022/07/08 00:49:24;;;;;;;7.23;1.47;;;;;;;;;;5009735;28;20018;-68
2022/07/08 00:51:49;;;;;;;5.20;1.20;;;;;;;;;;5010809;28;20367;-69
2022/07/08 00:54:16;;;;;;;8.97;1.30;;;;;;;;;;5012692;28;20486;-69
2022/07/08 00:56:41;;;;;;;7.53;1.33;;;;;;;;;;5010375;28;20312;-68
2022/07/08 00:59:07;;;;;;;11.02;1.77;;;;;;;;;;5011400;28;20060;-68
2022/07/08 01:01:32;;;;;;;9.88;1.52;;;;;;;;;;5007828;28;20479;-69
2022/07/08 01:03:57;;;;;;;9.80;1.90;;;;;;;;;;5010452;28;20054;-69
2022/07/08 01:06:23;;;;;;;14.67;1.77;;;;;;;;;;5009828;28;20382;-68
2022/07/08 01:08:48;;;;;;;11.30;1.47;;;;;;;;;;5011073;28;20289;-69
2022/07/08 01:11:13;;;;;;;8.18;1.33;;;;;;;;;;5011035;28;20284;-69
2022/07/08 01:13:39;;;;;;;12.45;1.73;;;;;;;;;;5010717;28;20022;-69
2022/07/08 01:16:04;;;;;;;7.78;1.30;;;;;;;;;;5008917;28;20021;-69
2022/07/08 01:18:30;;;;;;;9.75;1.40;;;;;;;;;;5008110;28;20018;-68
2022/07/08 01:20:56;;;;;;;8.65;2.38;;;;;;;;;;5008885;28;20474;-69
2022/07/08 01:23:21;;;;;;;8.82;1.60;;;;;;;;;;5010771;28;20075;-69
2022/07/08 01:25:47;;;;;;;11.35;1.83;;;;;;;;;;5009450;28;20037;-68
2022/07/08 01:28:12;;;;;;;8.93;1.50;;;;;;;;;;5010522;28;20034;-68
2022/07/08 01:30:37;;;;;;;7.50;1.48;;;;;;;;;;5009699;28;20025;-68
2022/07/08 01:33:03;;;;;;;14.68;2.20;;;;;;;;;;5009607;28;20051;-68
2022/07/08 01:35:28;;;;;;;7.32;1.13;;;;;;;;;;5010354;28;20061;-68
2022/07/08 01:37:53;;;;;;;12.37;1.67;;;;;;;;;;5009118;28;20021;-68
2022/07/08 01:40:18;;;;;;;5.40;1.50;;;;;;;;;;5008705;28;20757;-69
2022/07/08 01:42:43;;;;;;;9.33;1.73;;;;;;;;;;5006234;28;20275;-68
2022/07/08 01:45:09;;;;;;;9.63;1.67;;;;;;;;;;5007278;28;20273;-68
2022/07/08 01:47:34;;;;;;;13.68;2.33;;;;;;;;;;5008407;28;20296;-69
2022/07/08 01:49:59;;;;;;;9.07;1.33;;;;;;;;;;5009552;28;20113;-69
2022/07/08 01:52:24;;;;;;;14.85;2.22;;;;;;;;;;5010040;28;20700;-69
2022/07/08 01:54:50;;;;;;;9.17;1.77;;;;;;;;;;5008407;28;20386;-69
2022/07/08 01:57:15;;;;;;;12.98;1.83;;;;;;;;;;5009355;28;20265;-68
2022/07/08 01:59:44;;;;;;;13.50;1.42;;;;;;;;;;5010256;28;20505;-68
2022/07/08 02:02:11;;;;;;;14.65;1.85;;;;;;;;;;5008501;28;20474;-69
2022/07/08 02:04:36;;;;;;;11.80;1.90;;;;;;;;;;5009085;28;20029;-69
2022/07/08 02:07:01;;;;;;;10.57;2.00;;;;;;;;;;5007204;28;20167;-69
2022/07/08 02:09:26;;;;;;;12.48;1.92;;;;;;;;;;5010631;28;20415;-69
2022/07/08 02:12:34;;;;;;;9.60;1.53;;;;;;;;;;5007784;28;20481;-69
2022/07/08 02:14:40;;;;;;;17.23;2.85;;;;;;;;;;4999539;28;20261;-69
2022/07/08 02:17:05;;;;;;;12.80;1.38;;;;;;;;;;5008638;28;20025;-69
2022/07/08 02:19:31;;;;;;;7.30;1.53;;;;;;;;;;5008945;28;20024;-69
2022/07/08 02:21:56;;;;;;;10.48;1.60;;;;;;;;;;5009447;28;20268;-69
2022/07/08 02:24:21;;;;;;;10.63;1.63;;;;;;;;;;5008175;28;20470;-69
2022/07/08 02:26:46;;;;;;;10.10;1.50;;;;;;;;;;5007447;28;20371;-69
2022/07/08 02:29:12;;;;;;;15.60;2.13;;;;;;;;;;5008768;28;20022;-69
2022/07/08 02:31:37;;;;;;;11.48;1.98;;;;;;;;;;5009415;28;20288;-69
2022/07/08 02:34:02;;;;;;;10.30;2.05;;;;;;;;;;5006185;28;20025;-68
2022/07/08 02:36:27;;;;;;;11.50;2.13;;;;;;;;;;5009631;28;20040;-69
2022/07/08 02:38:53;;;;;;;18.92;1.70;;;;;;;;;;5009490;28;20268;-69
2022/07/08 02:41:18;;;;;;;8.32;1.75;;;;;;;;;;5009514;28;20029;-69
2022/07/08 02:43:43;;;;;;;11.32;1.45;;;;;;;;;;5008781;28;20475;-69
2022/07/08 02:46:08;;;;;;;8.97;2.10;;;;;;;;;;5008530;28;20034;-69
2022/07/08 02:48:34;;;;;;;5.27;1.40;;;;;;;;;;5007656;28;20280;-69
2022/07/08 02:50:59;;;;;;;8.48;1.42;;;;;;;;;;5009351;28;20661;-69
2022/07/08 02:53:24;;;;;;;16.48;2.38;;;;;;;;;;5008624;28;20024;-69
2022/07/08 02:55:49;;;;;;;18.10;1.80;;;;;;;;;;5005719;28;20355;-68
2022/07/08 02:58:15;;;;;;;6.17;1.20;;;;;;;;;;5009635;28;20486;-68
2022/07/08 03:00:40;;;;;;;10.57;1.50;;;;;;;;;;5007231;28;20279;-69
2022/07/08 03:03:05;;;;;;;11.60;1.80;;;;;;;;;;5008874;28;20614;-69
2022/07/08 03:05:30;;;;;;;6.40;1.40;;;;;;;;;;5006216;28;20022;-69
2022/07/08 03:07:55;;;;;;;6.43;1.42;;;;;;;;;;5009686;28;20308;-68
2022/07/08 03:10:21;;;;;;;7.33;2.17;;;;;;;;;;5005590;28;20032;-69
2022/07/08 03:12:46;;;;;;;6.67;1.37;;;;;;;;;;5005269;28;20761;-69
2022/07/08 03:15:11;;;;;;;19.17;1.90;;;;;;;;;;5007844;28;20291;-69
2022/07/08 03:17:36;;;;;;;14.33;1.83;;;;;;;;;;5006494;28;20277;-69
2022/07/08 03:20:01;;;;;;;11.23;1.58;;;;;;;;;;5006608;28;20566;-69
2022/07/08 03:22:26;;;;;;;9.50;1.25;;;;;;;;;;5006560;28;20097;-68
2022/07/08 03:24:52;;;;;;;8.57;1.80;;;;;;;;;;5006801;28;20092;-69
2022/07/08 03:27:17;;;;;;;14.88;1.60;;;;;;;;;;5004026;28;20272;-68
2022/07/08 03:29:42;;;;;;;10.38;1.30;;;;;;;;;;5006600;28;20046;-69
2022/07/08 03:32:07;;;;;;;9.68;1.85;;;;;;;;;;5006314;28;20025;-69
2022/07/08 03:34:33;;;;;;;19.77;2.85;;;;;;;;;;5005289;28;20033;-69
2022/07/08 03:36:59;;;;;;;7.72;1.92;;;;;;;;;;5006448;28;20022;-69
2022/07/08 03:39:24;;;;;;;7.15;1.70;;;;;;;;;;5005760;28;20030;-69
2022/07/08 03:41:49;;;;;;;7.13;1.40;;;;;;;;;;5007622;28;20030;-69
2022/07/08 03:44:14;;;;;;;12.27;1.80;;;;;;;;;;5008746;28;20796;-69
2022/07/08 03:46:40;;;;;;;7.67;1.23;;;;;;;;;;5010578;28;20153;-69
2022/07/08 03:49:05;;;;;;;7.55;1.70;;;;;;;;;;5012752;28;20765;-68
2022/07/08 03:51:30;;;;;;;10.15;1.85;;;;;;;;;;5012324;28;20018;-69
2022/07/08 03:53:55;;;;;;;18.10;2.03;;;;;;;;;;5009486;28;20018;-68
2022/07/08 03:56:20;;;;;;;7.13;1.20;;;;;;;;;;5007188;28;20288;-68
2022/07/08 03:58:46;;;;;;;11.13;1.93;;;;;;;;;;5011603;28;20037;-69
2022/07/08 04:01:11;;;;;;;8.03;2.80;;;;;;;;;;5013076;28;20264;-69
2022/07/08 04:03:36;;;;;;;11.70;2.03;;;;;;;;;;5012244;28;20269;-69
2022/07/08 04:06:01;;;;;;;10.20;1.30;;;;;;;;;;5009731;28;20273;-68
2022/07/08 04:08:26;;;;;;;10.70;1.77;;;;;;;;;;5009645;28;20284;-69
2022/07/08 04:10:52;;;;;;;6.07;1.90;;;;;;;;;;5010162;28;20029;-69
2022/07/08 04:13:17;;;;;;;6.93;1.38;;;;;;;;;;5012345;28;20026;-69
2022/07/08 04:15:42;;;;;;;12.68;2.88;;;;;;;;;;5012783;28;20089;-69
2022/07/08 04:18:07;;;;;;;7.70;1.70;;;;;;;;;;5012104;28;20076;-69
2022/07/08 04:20:33;;;;;;;5.47;1.20;;;;;;;;;;5011965;28;20639;-68
2022/07/08 04:22:59;;;;;;;11.05;1.67;;;;;;;;;;5012807;28;20073;-69
2022/07/08 04:25:24;;;;;;;9.03;1.37;;;;;;;;;;5011290;28;20022;-69
2022/07/08 04:27:49;;;;;;;8.90;1.33;;;;;;;;;;5010458;28;20272;-68
2022/07/08 04:30:14;;;;;;;13.32;1.77;;;;;;;;;;5006804;28;20090;-69
2022/07/08 04:32:39;;;;;;;6.70;1.50;;;;;;;;;;5010066;28;20487;-69
2022/07/08 04:35:05;;;;;;;9.00;1.80;;;;;;;;;;5009755;28;20505;-68
2022/07/08 04:37:30;;;;;;;4.32;1.70;;;;;;;;;;5010408;28;20277;-68
2022/07/08 04:39:55;;;;;;;8.27;1.50;;;;;;;;;;5008318;28;20402;-68
2022/07/08 04:42:21;;;;;;;8.57;1.83;;;;;;;;;;5011159;28;20029;-69
2022/07/08 04:44:46;;;;;;;11.15;1.60;;;;;;;;;;5011435;28;20355;-69
2022/07/08 04:47:11;;;;;;;11.17;1.80;;;;;;;;;;5008991;28;20025;-69
2022/07/08 04:49:36;;;;;;;9.98;1.67;;;;;;;;;;5010769;28;20685;-68
2022/07/08 04:52:06;;;;;;;12.23;1.33;;;;;;;;;;5009800;28;20133;-69
2022/07/08 04:54:31;;;;;;;12.45;1.73;;;;;;;;;;5011662;28;20265;-69
2022/07/08 04:56:56;;;;;;;8.07;1.42;;;;;;;;;;5008276;28;20028;-69
2022/07/08 04:59:22;;;;;;;12.33;1.70;;;;;;;;;;5010261;28;20030;-69
2022/07/08 05:01:47;;;;;;;12.88;1.55;;;;;;;;;;5009331;28;20288;-69
2022/07/08 05:04:12;;;;;;;15.10;1.80;;;;;;;;;;5011607;28;20116;-69
2022/07/08 05:06:37;;;;;;;12.98;1.98;;;;;;;;;;5010068;28;20276;-69
2022/07/08 05:09:03;;;;;;;6.78;1.27;;;;;;;;;;5010470;28;20031;-69
2022/07/08 05:11:28;;;;;;;11.32;1.65;;;;;;;;;;5009364;28;20068;-69
2022/07/08 05:13:53;;;;;;;10.57;2.17;;;;;;;;;;5008772;28;20022;-69
2022/07/08 05:16:19;;;;;;;7.50;1.60;;;;;;;;;;5010771;28;20296;-69
2022/07/08 05:18:44;;;;;;;9.00;1.95;;;;;;;;;;5010803;28;20360;-69
2022/07/08 05:21:09;;;;;;;7.68;2.42;;;;;;;;;;5010899;28;20044;-68
2022/07/08 05:23:34;;;;;;;17.77;2.75;;;;;;;;;;5010431;28;20445;-68
2022/07/08 05:26:00;;;;;;;11.00;1.73;;;;;;;;;;5005721;28;20036;-69
2022/07/08 05:28:25;;;;;;;26.33;2.30;;;;;;;;;;5010729;28;20347;-68
2022/07/08 05:30:50;;;;;;;6.07;1.60;;;;;;;;;;5009178;28;20072;-69
2022/07/08 05:33:15;;;;;;;10.30;2.03;;;;;;;;;;5008675;28;20399;-68
2022/07/08 05:35:40;;;;;;;19.40;1.98;;;;;;;;;;5010060;28;20277;-70
2022/07/08 05:38:06;;;;;;;8.57;1.40;;;;;;;;;;5008966;28;20025;-69
2022/07/08 05:40:31;;;;;;;10.60;1.90;;;;;;;;;;5006388;28;20281;-69
2022/07/08 05:42:56;;;;;;;12.77;2.03;;;;;;;;;;5005965;28;20095;-69
2022/07/08 05:45:21;;;;;;;11.43;2.08;;;;;;;;;;5010116;28;20285;-69
2022/07/08 05:47:46;;;;;;;15.55;2.78;;;;;;;;;;5009584;28;20034;-69
2022/07/08 05:50:12;;;;;;;12.75;2.05;;;;;;;;;;5009641;28;20030;-69
2022/07/08 05:52:37;;;;;;;23.30;2.97;;;;;;;;;;5010467;28;20036;-68
2022/07/08 05:55:02;;;;;;;10.35;2.13;;;;;;;;;;5007030;28;20272;-69
2022/07/08 05:57:28;;;;;;;10.85;2.20;;;;;;;;;;5008562;28;20032;-68
2022/07/08 05:59:53;;;;;;;13.38;2.08;;;;;;;;;;5004226;28;20025;-69
2022/07/08 06:02:21;;;;;;;15.83;2.70;;;;;;;;;;5007691;28;20044;-69
2022/07/08 06:04:46;;;;;;;9.80;2.20;;;;;;;;;;5008717;28;20298;-69
2022/07/08 06:07:11;;;;;;;22.58;3.03;;;;;;;;;;5006433;28;20684;-69
2022/07/08 06:09:37;;;;;;;10.63;2.00;;;;;;;;;;5007863;28;20478;-69
2022/07/08 06:12:02;;;;;;;18.17;2.30;;;;;;;;;;5008930;28;20021;-68
2022/07/08 06:14:29;;;;;;;5.90;2.22;;;;;;;;;;5005207;28;20301;-69
2022/07/08 06:16:54;;;;;;;14.30;2.50;;;;;;;;;;5007455;28;20104;-69
2022/07/08 06:19:19;;;;;;;13.40;2.00;;;;;;;;;;5008199;28;20623;-69
2022/07/08 06:21:44;;;;;;;13.83;2.10;;;;;;;;;;5009204;28;20422;-68
2022/07/08 06:24:09;;;;;;;8.00;1.93;;;;;;;;;;5009160;28;20327;-68
2022/07/08 06:26:35;;;;;;;12.50;2.25;;;;;;;;;;5008571;28;20284;-69
2022/07/08 06:29:00;;;;;;;14.60;2.30;;;;;;;;;;5007618;28;20025;-69
2022/07/08 06:31:26;;;;;;;12.75;2.33;;;;;;;;;;5007442;28;20030;-68
2022/07/08 06:33:57;;;;;;;11.65;2.03;;;;;;;;;;5008724;28;20025;-69
2022/07/08 06:36:23;;;;;;;14.57;3.40;;;;;;;;;;5002830;28;20161;-69
2022/07/08 06:38:49;;;;;;;10.20;1.90;;;;;;;;;;5007554;28;20145;-68
2022/07/08 06:41:14;;;;;;;13.23;2.33;;;;;;;;;;5004389;28;20145;-68
2022/07/08 06:43:39;;;;;;;22.43;2.73;;;;;;;;;;5006201;28;20757;-69
2022/07/08 06:46:04;;;;;;;14.95;3.58;;;;;;;;;;5006619;28;20268;-69
2022/07/08 06:48:29;;;;;;;20.80;3.50;;;;;;;;;;5008502;28;20022;-69
2022/07/08 06:50:55;;;;;;;13.57;3.83;;;;;;;;;;5009274;28;20172;-68
2022/07/08 06:53:20;;;;;;;18.65;4.55;;;;;;;;;;5005295;28;20040;-68
2022/07/08 06:55:45;;;;;;;10.83;4.50;;;;;;;;;;5008707;28;20026;-68
2022/07/08 06:58:10;;;;;;;7.78;3.60;;;;;;;;;;5006299;28;20284;-68
2022/07/08 07:00:36;;;;;;;16.60;3.83;;;;;;;;;;5007649;28;20018;-68
2022/07/08 07:03:01;;;;;;;8.88;2.67;;;;;;;;;;5007996;28;20769;-68
2022/07/08 07:05:26;;;;;;;16.23;2.87;;;;;;;;;;5007551;28;20391;-69
2022/07/08 07:07:51;;;;;;;13.37;2.83;;;;;;;;;;5007066;28;20379;-69
2022/07/08 07:10:16;;;;;;;12.27;2.72;;;;;;;;;;5007730;28;20281;-68
2022/07/08 07:12:42;;;;;;;14.32;2.67;;;;;;;;;;5008079;28;20382;-68
2022/07/08 07:15:07;;;;;;;9.30;2.67;;;;;;;;;;5008950;28;20463;-68
2022/07/08 07:17:32;;;;;;;12.98;3.33;;;;;;;;;;5009026;28;20017;-69
2022/07/08 07:19:57;;;;;;;13.38;3.10;;;;;;;;;;5007185;28;20018;-68
2022/07/08 07:22:23;;;;;;;18.07;3.13;;;;;;;;;;5008251;28;20030;-68
2022/07/08 07:24:48;;;;;;;14.00;3.47;;;;;;;;;;5006065;28;20348;-68
2022/07/08 07:27:13;;;;;;;20.07;3.60;;;;;;;;;;5006892;28;20068;-68
2022/07/08 07:29:38;;;;;;;11.02;3.17;;;;;;;;;;5009115;28;20033;-68
2022/07/08 07:32:04;;;;;;;10.60;4.28;;;;;;;;;;5008574;28;20470;-68
2022/07/08 07:34:29;;;;;;;15.13;5.30;;;;;;;;;;5007864;28;20443;-69
2022/07/08 07:36:54;;;;;;;14.40;7.53;;;;;;;;;;5005679;28;20032;-68
2022/07/08 07:39:19;;;;;;;16.35;8.70;;;;;;;;;;5007809;28;20033;-69
2022/07/08 07:41:44;;;;;;;15.47;6.23;;;;;;;;;;5007549;28;20028;-68
2022/07/08 07:44:10;;;;;;;13.80;5.70;;;;;;;;;;5010059;28;20292;-68
2022/07/08 07:46:35;;;;;;;11.90;5.80;;;;;;;;;;5006901;28;20277;-69
2022/07/08 07:49:00;;;;;;;11.07;5.95;;;;;;;;;;5009073;28;20340;-68
2022/07/08 07:51:25;;;;;;;16.98;6.13;;;;;;;;;;5006407;28;20140;-69
2022/07/08 07:53:51;;;;;;;13.83;7.17;;;;;;;;;;5005569;28;20054;-69
2022/07/08 07:56:16;;;;;;;13.18;4.97;;;;;;;;;;5007410;28;20261;-69
2022/07/08 07:58:41;;;;;;;7.28;3.80;;;;;;;;;;5007401;28;20125;-69
2022/07/08 08:01:07;;;;;;;13.85;4.20;;;;;;;;;;5008247;28;20313;-70
2022/07/08 08:03:32;;;;;;;8.33;2.63;;;;;;;;;;5007159;28;20033;-69
2022/07/08 08:05:58;;;;;;;6.35;3.33;;;;;;;;;;5007416;28;20311;-69
2022/07/08 08:08:24;;;;;;;6.72;2.88;;;;;;;;;;5006333;28;20028;-69
2022/07/08 08:10:49;;;;;;;7.03;2.83;;;;;;;;;;5006737;28;20030;-68
2022/07/08 08:13:15;;;;;;;10.70;2.78;;;;;;;;;;5005596;28;20029;-69
2022/07/08 08:15:40;;;;;;;9.37;2.37;;;;;;;;;;5007044;28;20045;-69
2022/07/08 08:18:05;;;;;;;9.20;2.50;;;;;;;;;;5009432;28;20089;-69
2022/07/08 08:20:31;;;;;;;11.13;3.08;;;;;;;;;;5007606;28;20081;-68
2022/07/08 08:22:56;;;;;;;9.15;2.88;;;;;;;;;;5008287;28;20033;-69
2022/07/08 08:25:21;;;;;;;10.25;2.22;;;;;;;;;;5007122;28;20028;-69
2022/07/08 08:27:47;;;;;;;8.40;2.83;;;;;;;;;;5004000;28;20052;-68
2022/07/08 08:30:12;;;;;;;8.43;2.70;;;;;;;;;;5006993;28;20285;-69
2022/07/08 08:32:38;;;;;;;10.63;2.42;;;;;;;;;;5009631;28;20060;-68
2022/07/08 08:35:04;;;;;;;15.40;2.95;;;;;;;;;;5009478;28;20061;-69
2022/07/08 08:37:29;;;;;;;16.10;2.95;;;;;;;;;;5007841;28;20502;-69
2022/07/08 08:40:04;;;;;;;9.20;2.27;;;;;;;;;;5028769;22;20044;-87
2022/07/08 08:42:30;;;;;;;12.85;2.65;;;;;;;;;;5009229;28;20284;-87
2022/07/08 08:44:57;;;;;;;6.13;2.30;;;;;;;;;;5006790;28;20521;-85
2022/07/08 08:47:27;;;;;;;10.80;2.50;;;;;;;;;;5026914;28;20470;-86
2022/07/08 08:49:53;;;;;;;7.32;2.65;;;;;;;;;;5014140;28;20021;-86
2022/07/08 08:52:19;;;;;;;7.53;2.30;;;;;;;;;;5003131;28;20156;-86
2022/07/08 08:54:45;;;;;;;8.57;2.20;;;;;;;;;;4993704;28;20160;-86
2022/07/08 08:57:10;;;;;;;6.15;2.47;;;;;;;;;;5006434;28;20087;-86
2022/07/08 08:59:36;;;;;;;10.07;2.67;;;;;;;;;;4997581;28;20534;-86
2022/07/08 09:02:01;;;;;;;13.07;2.67;;;;;;;;;;4999933;28;20517;-86
2022/07/08 09:04:28;;;;;;;8.43;2.10;;;;;;;;;;5010893;28;20394;-87
2022/07/08 09:06:53;;;;;;;11.48;2.70;;;;;;;;;;5018842;28;20488;-85
2022/07/08 09:09:19;;;;;;;11.87;3.10;;;;;;;;;;5010429;28;20018;-86
2022/07/08 09:11:44;;;;;;;11.77;3.17;;;;;;;;;;5033742;28;20277;-85
2022/07/08 09:14:12;;;;;;;11.02;2.85;;;;;;;;;;4979758;28;20282;-86
2022/07/08 09:16:37;;;;;;;10.93;3.20;;;;;;;;;;4996852;28;20072;-86
2022/07/08 09:19:12;;;;;;;9.00;2.78;;;;;;;;;;5024104;28;20029;-86
2022/07/08 09:21:37;;;;;;;10.65;3.30;;;;;;;;;;5012217;28;20486;-85
2022/07/08 09:24:17;;;;;;;14.13;3.00;;;;;;;;;;4991974;28;20122;-87
2022/07/08 09:26:42;;;;;;;14.93;3.33;;;;;;;;;;5008540;28;20740;-86
2022/07/08 09:29:07;;;;;;;14.93;2.88;;;;;;;;;;5008113;28;20084;-86
2022/07/08 09:31:34;;;;;;;10.00;3.10;;;;;;;;;;4996995;28;20029;-86
2022/07/08 09:34:05;;;;;;;13.77;3.25;;;;;;;;;;4995979;28;20331;-86
2022/07/08 09:36:42;;;;;;;17.35;3.25;;;;;;;;;;4994393;28;20449;-86
2022/07/08 09:39:07;;;;;;;10.65;3.33;;;;;;;;;;5022478;28;20443;-86
2022/07/08 09:41:45;;;;;;;15.25;3.47;;;;;;;;;;5010332;28;20018;-86
2022/07/08 09:44:13;;;;;;;10.50;3.28;;;;;;;;;;5005049;28;20036;-87
2022/07/08 09:46:38;;;;;;;10.48;2.97;;;;;;;;;;5002910;28;20041;-85
2022/07/08 09:49:04;;;;;;;13.40;2.73;;;;;;;;;;5004060;28;20025;-87
2022/07/08 09:51:30;;;;;;;13.45;3.42;;;;;;;;;;5029502;28;20284;-87
2022/07/08 09:54:07;;;;;;;10.38;3.83;;;;;;;;;;5006595;28;20636;-87
2022/07/08 09:56:32;;;;;;;11.90;3.58;;;;;;;;;;4995931;28;20028;-87
2022/07/08 09:58:58;;;;;;;13.03;2.73;;;;;;;;;;5001490;28;20014;-86
2022/07/08 10:01:23;;;;;;;12.68;3.00;;;;;;;;;;5006151;28;21047;-87
2022/07/08 10:03:48;;;;;;;11.65;2.90;;;;;;;;;;4994528;28;20026;-86
2022/07/08 10:06:14;;;;;;;16.58;3.10;;;;;;;;;;5012550;28;20522;-87
2022/07/08 10:08:39;;;;;;;9.23;2.42;;;;;;;;;;5000332;28;20025;-87
2022/07/08 10:11:09;;;;;;;14.80;2.40;;;;;;;;;;4997785;28;20108;-85
2022/07/08 10:13:35;;;;;;;10.38;2.60;;;;;;;;;;5015962;28;20132;-86
2022/07/08 10:16:03;;;;;;;12.23;2.60;;;;;;;;;;5000060;28;20068;-86
2022/07/08 10:18:28;;;;;;;15.25;2.60;;;;;;;;;;5008147;28;20025;-86
2022/07/08 10:20:55;;;;;;;8.13;2.50;;;;;;;;;;4995374;28;20018;-86
2022/07/08 10:23:34;;;;;;;8.55;2.58;;;;;;;;;;5006366;28;20115;-86
2022/07/08 10:26:00;;;;;;;13.60;2.58;;;;;;;;;;4990603;28;20093;-87
2022/07/08 10:28:36;;;;;;;22.85;2.65;;;;;;;;;;5006935;28;20018;-87
2022/07/08 10:31:01;;;;;;;9.98;2.35;;;;;;;;;;5007533;28;20018;-86
2022/07/08 10:33:28;;;;;;;11.60;2.28;;;;;;;;;;5009853;28;20096;-87
2022/07/08 10:36:06;;;;;;;13.27;2.47;;;;;;;;;;5002653;28;20020;-86
2022/07/08 10:38:36;;;;;;;15.60;2.15;;;;;;;;;;4995090;28;20018;-88
2022/07/08 10:41:11;;;;;;;13.07;2.45;;;;;;;;;;4996958;28;20029;-87
2022/07/08 10:43:37;;;;;;;9.07;2.63;;;;;;;;;;5027137;28;20042;-86
2022/07/08 10:46:12;;;;;;;16.45;2.28;;;;;;;;;;5009634;28;20065;-87
2022/07/08 10:48:40;;;;;;;8.27;2.40;;;;;;;;;;4998252;28;20049;-85
2022/07/08 10:51:26;;;;;;;8.65;2.38;;;;;;;;;;5002193;28;20050;-86
2022/07/08 10:53:52;;;;;;;12.82;2.22;;;;;;;;;;4990469;28;20028;-87
2022/07/08 10:56:36;;;;;;;10.45;2.25;;;;;;;;;;5006418;28;20017;-86
2022/07/08 10:59:28;;;;;;;8.45;2.78;;;;;;;;;;4993169;28;20017;-87
2022/07/08 11:01:54;;;;;;;9.52;1.63;;;;;;;;;;4987977;28;20037;-86
2022/07/08 11:04:20;;;;;;;9.03;1.90;;;;;;;;;;5006976;28;20018;-87
2022/07/08 11:06:46;;;;;;;17.98;2.95;;;;;;;;;;4998200;28;20347;-86
2022/07/08 11:09:14;;;;;;;9.85;1.70;;;;;;;;;;5005586;28;20487;-85
2022/07/08 11:11:40;;;;;;;6.68;1.80;;;;;;;;;;5008530;28;20076;-86
2022/07/08 11:14:05;;;;;;;12.35;2.13;;;;;;;;;;5023565;28;20133;-87
2022/07/08 11:16:31;;;;;;;6.72;1.52;;;;;;;;;;4992371;28;20087;-85
2022/07/08 11:18:56;;;;;;;13.73;2.05;;;;;;;;;;5001895;28;20071;-88
2022/07/08 11:21:22;;;;;;;8.40;1.88;;;;;;;;;;5021933;28;20190;-86
2022/07/08 11:23:47;;;;;;;11.13;1.88;;;;;;;;;;4991829;28;20375;-85
2022/07/08 11:26:20;;;;;;;5.40;1.55;;;;;;;;;;5006428;28;20092;-87
2022/07/08 11:28:45;;;;;;;7.53;1.65;;;;;;;;;;5003057;28;20695;-86
2022/07/08 11:31:22;;;;;;;8.60;1.90;;;;;;;;;;5026062;28;20053;-86
2022/07/08 11:33:48;;;;;;;8.13;1.70;;;;;;;;;;4998755;28;20285;-86
2022/07/08 11:36:17;;;;;;;8.18;1.98;;;;;;;;;;4989343;28;20021;-86
2022/07/08 11:38:43;;;;;;;11.27;1.58;;;;;;;;;;5000748;28;20022;-86
2022/07/08 11:41:08;;;;;;;9.43;1.38;;;;;;;;;;5027888;28;20034;-86
2022/07/08 11:43:34;;;;;;;11.55;2.38;;;;;;;;;;4998801;28;20021;-86
2022/07/08 11:45:59;;;;;;;13.38;3.08;;;;;;;;;;5007184;28;20393;-86
2022/07/08 11:48:34;;;;;;;15.32;2.88;;;;;;;;;;5004262;28;20030;-85
2022/07/08 11:51:00;;;;;;;9.05;1.80;;;;;;;;;;5004619;28;20115;-86
2022/07/08 11:53:25;;;;;;;5.77;1.50;;;;;;;;;;5025150;28;20661;-86
2022/07/08 11:55:50;;;;;;;8.77;2.23;;;;;;;;;;4995662;28;20269;-86
2022/07/08 11:58:25;;;;;;;10.00;2.13;;;;;;;;;;5004555;28;20284;-85
2022/07/08 12:00:50;;;;;;;11.68;2.10;;;;;;;;;;4996899;28;20332;-85
2022/07/08 12:03:16;;;;;;;8.80;1.85;;;;;;;;;;4993622;28;20601;-86
2022/07/08 12:05:41;;;;;;;12.18;2.42;;;;;;;;;;5009280;28;20359;-86
2022/07/08 12:08:10;;;;;;;8.57;1.90;;;;;;;;;;5011472;28;20109;-87
2022/07/08 12:10:35;;;;;;;8.75;1.77;;;;;;;;;;5016654;28;20085;-86
2022/07/08 12:13:01;;;;;;;6.80;1.73;;;;;;;;;;5023229;28;20026;-85
2022/07/08 12:15:32;;;;;;;7.27;1.90;;;;;;;;;;5009749;28;20022;-86
2022/07/08 12:17:58;;;;;;;6.07;1.50;;;;;;;;;;5013596;28;20284;-85
2022/07/08 12:20:34;;;;;;;5.00;1.48;;;;;;;;;;5014112;28;20021;-85
2022/07/08 12:22:59;;;;;;;8.75;1.52;;;;;;;;;;4998469;28;20022;-86
2022/07/08 12:25:24;;;;;;;10.73;2.05;;;;;;;;;;5005546;28;20140;-86
2022/07/08 12:27:57;;;;;;;7.00;1.73;;;;;;;;;;5010538;28;20028;-87
2022/07/08 12:30:27;;;;;;;10.30;2.15;;;;;;;;;;4998966;28;20030;-84
2022/07/08 12:32:52;;;;;;;;;;;;;;;;;;5003500;28;20021;-85
2022/07/08 12:35:17;;;;;;;10.43;1.77;;;;;;;;;;5018017;28;19920;-85
2022/07/08 12:37:43;;;;;;;12.07;2.75;;;;;;;;;;5016738;28;20029;-87
2022/07/08 12:40:15;;;;;;;9.98;2.33;;;;;;;;;;5039468;28;20029;-84
2022/07/08 12:42:40;;;;;;;13.23;1.63;;;;;;;;;;5013788;28;20044;-85
2022/07/08 12:45:15;;;;;;;10.63;2.57;;;;;;;;;;4998913;28;20086;-86
2022/07/08 12:47:40;;;;;;;9.07;1.90;;;;;;;;;;5004739;28;20412;-84
2022/07/08 12:50:06;;;;;;;7.05;1.35;;;;;;;;;;5024159;28;20026;-86
2022/07/08 12:52:31;;;;;;;10.30;1.90;;;;;;;;;;5036773;28;20075;-88
2022/07/08 12:54:57;;;;;;;12.88;1.52;;;;;;;;;;5029537;28;20048;-86
2022/07/08 12:57:22;;;;;;;4.87;1.70;;;;;;;;;;5034811;28;20076;-86
2022/07/08 12:59:47;;;;;;;7.88;2.15;;;;;;;;;;5013054;28;20280;-87
2022/07/08 13:02:12;;;;;;;10.73;2.27;;;;;;;;;;4996353;28;20398;-86
2022/07/08 13:04:38;;;;;;;5.60;1.57;;;;;;;;;;5012082;28;20053;-87
2022/07/08 13:07:03;;;;;;;10.85;2.05;;;;;;;;;;5009283;28;20296;-86
2022/07/08 13:09:28;;;;;;;9.23;1.98;;;;;;;;;;4992271;28;20049;-87
2022/07/08 13:11:54;;;;;;;17.88;2.28;;;;;;;;;;4996669;28;20474;-86
2022/07/08 13:14:19;;;;;;;8.25;1.65;;;;;;;;;;5031291;28;20021;-87
2022/07/08 13:16:45;;;;;;;13.00;2.95;;;;;;;;;;5010723;28;20025;-87
2022/07/08 13:19:10;;;;;;;5.68;1.50;;;;;;;;;;5035459;28;20441;-87
2022/07/08 13:21:36;;;;;;;7.05;1.70;;;;;;;;;;5008788;28;20018;-87
2022/07/08 13:24:04;;;;;;;12.75;1.63;;;;;;;;;;5013404;28;20022;-87
2022/07/08 13:26:30;;;;;;;8.13;1.90;;;;;;;;;;4995984;28;20049;-87
2022/07/08 13:28:55;;;;;;;10.30;1.35;;;;;;;;;;5008936;28;20064;-85
2022/07/08 13:31:21;;;;;;;10.20;1.90;;;;;;;;;;4995769;28;20049;-87
2022/07/08 13:33:48;;;;;;;12.25;2.53;;;;;;;;;;5006036;28;20076;-86
2022/07/08 13:36:14;;;;;;;9.25;1.85;;;;;;;;;;5032245;28;20512;-86
2022/07/08 13:38:39;;;;;;;9.40;1.88;;;;;;;;;;5028372;28;20022;-86
2022/07/08 13:41:04;;;;;;;13.23;1.95;;;;;;;;;;5012531;28;20022;-86
2022/07/08 13:43:29;;;;;;;8.60;1.48;;;;;;;;;;5003549;28;20832;-84
2022/07/08 13:45:55;;;;;;;8.02;1.75;;;;;;;;;;5019339;28;20862;-87
2022/07/08 13:48:20;;;;;;;10.95;1.70;;;;;;;;;;5006075;28;20397;-86
2022/07/08 13:50:46;;;;;;;15.50;2.30;;;;;;;;;;4994765;28;20045;-87
2022/07/08 13:53:11;;;;;;;7.78;1.55;;;;;;;;;;4998965;28;20018;-86
2022/07/08 13:55:36;;;;;;;9.45;1.92;;;;;;;;;;5000003;28;20072;-87
2022/07/08 13:58:02;;;;;;;14.90;2.80;;;;;;;;;;5013817;28;20021;-88
2022/07/08 14:00:27;;;;;;;11.90;1.43;;;;;;;;;;5008800;28;20026;-88
2022/07/08 14:02:53;;;;;;;8.13;1.55;;;;;;;;;;5007419;28;20280;-87
2022/07/08 14:05:18;;;;;;;8.65;2.10;;;;;;;;;;5006842;28;20026;-89
2022/07/08 14:07:44;;;;;;;11.10;1.80;;;;;;;;;;4997441;28;20084;-88
2022/07/08 14:10:09;;;;;;;19.60;2.97;;;;;;;;;;5006407;28;20032;-89
2022/07/08 14:12:35;;;;;;;6.30;2.05;;;;;;;;;;5010364;28;20048;-89
2022/07/08 14:15:01;;;;;;;9.85;1.70;;;;;;;;;;5007454;28;20474;-90
2022/07/08 14:17:27;;;;;;;8.43;1.60;;;;;;;;;;5000182;28;20029;-88
2022/07/08 14:19:52;;;;;;;10.95;2.10;;;;;;;;;;5002115;28;20022;-89
2022/07/08 14:22:17;;;;;;;10.15;1.77;;;;;;;;;;4998626;28;20034;-87
2022/07/08 14:24:43;;;;;;;7.13;1.93;;;;;;;;;;5004909;28;20042;-88
2022/07/08 14:29:39;;;;;;;11.15;2.22;;;;;;;;;;4987677;28;20047;-67
2022/07/08 14:32:05;;;;;;;4.67;1.77;;;;;;;;;;4992994;28;20467;-67